createdAt,value
2023-03-20T00:01:16.382Z,100.00
2023-03-20T00:03:43.132Z,100.00
2023-03-20T00:06:18.374Z,100.00
2023-03-20T00:08:47.174Z,100.00
2023-03-20T00:11:31.136Z,100.00
2023-03-20T00:14:07.099Z,100.00
2023-03-20T00:16:36.973Z,100.00
2023-03-20T00:19:05.106Z,100.00
2023-03-20T00:21:32.620Z,100.00
2023-03-20T00:24:00.532Z,100.00
2023-03-20T00:26:34.764Z,100.00
2023-03-20T00:29:03.943Z,100.00
2023-03-20T00:31:33.382Z,100.00
2023-03-20T00:34:02.404Z,100.00
2023-03-20T00:36:29.497Z,100.00
2023-03-20T00:38:59.351Z,100.00
2023-03-20T00:41:32.690Z,100.00
2023-03-20T00:44:22.398Z,100.00
2023-03-20T00:47:01.549Z,100.00
2023-03-20T00:49:30.790Z,100.00
2023-03-20T00:51:58.042Z,100.00
2023-03-20T00:54:24.885Z,100.00
2023-03-20T00:57:19.950Z,100.00
2023-03-20T00:59:56.340Z,100.00
2023-03-20T01:02:28.947Z,100.00
2023-03-20T01:04:55.982Z,100.00
2023-03-20T01:07:22.518Z,100.00
2023-03-20T01:09:48.964Z,100.00
2023-03-20T01:12:16.364Z,100.00
2023-03-20T01:14:43.759Z,100.00
2023-03-20T01:17:23.066Z,100.00
2023-03-20T01:19:49.874Z,100.00
2023-03-20T01:22:18.096Z,100.00
2023-03-20T01:24:44.807Z,100.00
2023-03-20T01:27:16.965Z,100.00
2023-03-20T01:29:44.298Z,100.00
2023-03-20T01:32:13.912Z,100.00
2023-03-20T01:34:40.774Z,100.00
2023-03-20T01:37:14.088Z,100.00
2023-03-20T01:39:41.029Z,100.00
2023-03-20T01:42:08.075Z,100.00
2023-03-20T01:44:36.441Z,100.00
2023-03-20T01:47:14.886Z,100.00
2023-03-20T01:50:00.406Z,100.00
2023-03-20T01:52:27.269Z,100.00
2023-03-20T01:54:53.747Z,100.00
2023-03-20T01:57:25.666Z,100.00
2023-03-20T02:00:03.804Z,100.00
2023-03-20T02:02:44.037Z,100.00
2023-03-20T02:05:17.670Z,100.00
2023-03-20T02:07:49.978Z,100.00
2023-03-20T02:10:18.979Z,100.00
2023-03-20T02:12:52.885Z,100.00
2023-03-20T02:15:29.788Z,100.00
2023-03-20T02:18:14.025Z,100.00
2023-03-20T02:21:03.535Z,100.00
2023-03-20T02:23:53.045Z,100.00
2023-03-20T02:26:40.676Z,100.00
2023-03-20T02:29:36.645Z,100.00
2023-03-20T02:32:18.757Z,100.00
2023-03-20T02:35:01.254Z,100.00
2023-03-20T02:37:27.715Z,100.00
2023-03-20T02:40:16.071Z,100.00
2023-03-20T02:43:10.926Z,100.00
2023-03-20T02:46:14.196Z,100.00
2023-03-20T02:48:58.028Z,100.00
2023-03-20T02:51:36.380Z,100.00
2023-03-20T02:54:21.735Z,100.00
2023-03-20T02:57:16.445Z,100.00
2023-03-20T02:59:55.612Z,100.00
2023-03-20T03:02:34.639Z,100.00
2023-03-20T03:05:05.474Z,100.00
2023-03-20T03:07:34.738Z,100.00
2023-03-20T03:10:11.583Z,100.00
2023-03-20T03:12:43.278Z,100.00
2023-03-20T03:15:22.893Z,100.00
2023-03-20T03:17:49.792Z,100.00
2023-03-20T03:20:24.510Z,100.00
2023-03-20T03:22:51.398Z,100.00
2023-03-20T03:25:18.164Z,100.00
2023-03-20T03:27:53.198Z,100.00
2023-03-20T03:30:29.842Z,100.00
2023-03-20T03:33:23.067Z,100.00
2023-03-20T03:35:51.423Z,100.00
2023-03-20T03:38:37.985Z,100.00
2023-03-20T03:41:28.464Z,100.00
2023-03-20T03:44:18.236Z,100.00
2023-03-20T03:46:53.766Z,100.00
2023-03-20T03:49:29.060Z,100.00
2023-03-20T03:52:00.629Z,100.00
2023-03-20T03:54:34.558Z,100.00
2023-03-20T03:57:27.862Z,100.00
2023-03-20T03:59:57.229Z,100.00
2023-03-20T04:02:24.164Z,100.00
2023-03-20T04:04:53.098Z,100.00
2023-03-20T04:07:20.458Z,100.00
2023-03-20T04:09:47.212Z,100.00
2023-03-20T04:12:38.210Z,100.00
2023-03-20T04:15:09.586Z,100.00
2023-03-20T04:17:36.493Z,100.00
2023-03-20T04:20:05.009Z,100.00
2023-03-20T04:22:34.695Z,100.00
2023-03-20T04:25:17.445Z,100.00
2023-03-20T04:27:43.945Z,100.00
2023-03-20T04:30:18.734Z,100.00
2023-03-20T04:33:04.149Z,100.00
2023-03-20T04:35:42.754Z,100.00
2023-03-20T04:38:12.928Z,100.00
2023-03-20T04:40:39.945Z,100.00
2023-03-20T04:43:06.581Z,100.00
2023-03-20T04:45:33.830Z,100.00
2023-03-20T04:48:01.901Z,100.00
2023-03-20T04:50:29.306Z,100.00
2023-03-20T04:52:56.083Z,100.00
2023-03-20T04:55:22.891Z,100.00
2023-03-20T04:57:50.662Z,100.00
2023-03-20T05:00:18.433Z,100.00
2023-03-20T05:02:45.531Z,100.00
2023-03-20T05:05:12.040Z,100.00
2023-03-20T05:07:38.563Z,100.00
2023-03-20T05:10:09.132Z,100.00
2023-03-20T05:12:44.745Z,100.00
2023-03-20T05:15:29.825Z,100.00
2023-03-20T05:18:14.774Z,100.00
2023-03-20T05:20:52.991Z,100.00
2023-03-20T05:23:27.214Z,100.00
2023-03-20T05:26:12.481Z,100.00
2023-03-20T05:29:05.756Z,100.00
2023-03-20T05:31:43.142Z,100.00
2023-03-20T05:34:18.109Z,100.00
2023-03-20T05:36:54.446Z,100.00
2023-03-20T05:39:46.684Z,100.00
2023-03-20T05:42:26.642Z,100.00
2023-03-20T05:45:10.252Z,100.00
2023-03-20T05:48:02.689Z,100.00
2023-03-20T05:50:40.933Z,100.00
2023-03-20T05:53:27.776Z,100.00
2023-03-20T05:55:54.286Z,100.00
2023-03-20T05:58:50.074Z,100.00
2023-03-20T06:01:31.222Z,100.00
2023-03-20T06:04:08.447Z,100.00
2023-03-20T06:06:59.397Z,100.00
2023-03-20T06:09:26.637Z,100.00
2023-03-20T06:11:53.655Z,100.00
2023-03-20T06:14:21.011Z,100.00
2023-03-20T06:16:55.256Z,100.00
2023-03-20T06:19:22.130Z,100.00
2023-03-20T06:21:49.934Z,100.00
2023-03-20T06:24:19.219Z,100.00
2023-03-20T06:26:45.990Z,100.00
2023-03-20T06:29:13.560Z,100.00
2023-03-20T06:31:40.348Z,100.00
2023-03-20T06:34:11.364Z,100.00
2023-03-20T06:36:45.241Z,100.00
2023-03-20T06:39:17.792Z,100.00
2023-03-20T06:41:44.267Z,100.00
2023-03-20T06:44:11.140Z,100.00
2023-03-20T06:46:56.554Z,99.85
2023-03-20T06:49:23.211Z,99.13
2023-03-20T06:51:50.661Z,98.63
2023-03-20T06:54:23.652Z,98.26
2023-03-20T06:56:51.500Z,98.67
2023-03-20T06:59:18.378Z,98.77
2023-03-20T07:01:45.542Z,98.64
2023-03-20T07:04:12.748Z,99.44
2023-03-20T07:06:46.282Z,99.45
2023-03-20T07:09:12.854Z,99.48
2023-03-20T07:11:39.549Z,98.84
2023-03-20T07:14:06.232Z,98.58
2023-03-20T07:16:59.392Z,98.79
2023-03-20T07:19:26.187Z,98.13
2023-03-20T07:22:01.808Z,98.46
2023-03-20T07:24:32.703Z,97.41
2023-03-20T07:26:59.797Z,97.58
2023-03-20T07:29:26.966Z,97.69
2023-03-20T07:31:54.778Z,98.04
2023-03-20T07:34:29.029Z,97.83
2023-03-20T07:36:56.436Z,98.55
2023-03-20T07:39:23.175Z,98.33
2023-03-20T07:42:08.743Z,98.19
2023-03-20T07:44:44.912Z,97.62
2023-03-20T07:47:12.023Z,97.56
2023-03-20T07:49:38.447Z,97.54
2023-03-20T07:52:07.249Z,97.80
2023-03-20T07:54:33.758Z,97.67
2023-03-20T07:57:00.282Z,96.85
2023-03-20T07:59:27.076Z,97.55
2023-03-20T08:01:53.556Z,97.13
2023-03-20T08:04:22.626Z,97.38
2023-03-20T08:06:49.765Z,95.83
2023-03-20T08:09:16.935Z,96.40
2023-03-20T08:11:43.693Z,96.05
2023-03-20T08:14:10.574Z,95.08
2023-03-20T08:16:37.164Z,96.26
2023-03-20T08:19:05.308Z,95.22
2023-03-20T08:21:32.790Z,95.70
2023-03-20T08:23:59.223Z,96.41
2023-03-20T08:26:26.020Z,95.89
2023-03-20T08:28:53.237Z,95.77
2023-03-20T08:31:20.214Z,99.07
2023-03-20T08:33:47.170Z,95.52
2023-03-20T08:36:15.860Z,95.30
2023-03-20T08:38:42.870Z,95.15
2023-03-20T08:41:11.137Z,95.29
2023-03-20T08:43:37.913Z,95.02
2023-03-20T08:46:04.750Z,94.26
2023-03-20T08:48:33.152Z,93.88
2023-03-20T08:50:59.817Z,94.27
2023-03-20T08:53:27.218Z,93.75
2023-03-20T08:55:54.352Z,92.33
2023-03-20T08:58:21.536Z,93.36
2023-03-20T09:00:48.012Z,93.34
2023-03-20T09:03:17.606Z,93.89
2023-03-20T09:05:45.494Z,94.26
2023-03-20T09:08:12.853Z,94.13
2023-03-20T09:10:40.711Z,92.99
2023-03-20T09:13:25.640Z,92.05
2023-03-20T09:15:53.476Z,92.47
2023-03-20T09:18:21.356Z,91.79
2023-03-20T09:20:48.619Z,91.40
2023-03-20T09:23:15.768Z,91.83
2023-03-20T09:25:42.255Z,91.47
2023-03-20T09:28:09.102Z,92.05
2023-03-20T09:30:36.345Z,91.42
2023-03-20T09:33:03.009Z,91.79
2023-03-20T09:35:29.498Z,91.37
2023-03-20T09:37:56.579Z,90.76
2023-03-20T09:40:28.868Z,91.18
2023-03-20T09:42:58.832Z,91.33
2023-03-20T09:45:41.448Z,91.13
2023-03-20T09:48:20.204Z,89.01
2023-03-20T09:50:53.805Z,88.82
2023-03-20T09:53:35.542Z,88.30
2023-03-20T09:56:02.583Z,86.54
2023-03-20T09:58:33.642Z,85.57
2023-03-20T10:01:02.558Z,85.77
2023-03-20T10:03:50.605Z,84.38
2023-03-20T10:06:18.053Z,84.92
2023-03-20T10:08:45.933Z,84.39
2023-03-20T10:11:34.227Z,84.41
2023-03-20T10:14:21.304Z,84.17
2023-03-20T10:17:13.706Z,84.66
2023-03-20T10:19:53.361Z,84.21
2023-03-20T10:22:32.779Z,84.47
2023-03-20T10:25:07.325Z,82.40
2023-03-20T10:27:41.951Z,81.59
2023-03-20T10:30:20.368Z,82.47
2023-03-20T10:33:18.914Z,83.70
2023-03-20T10:36:01.835Z,83.42
2023-03-20T10:38:49.319Z,81.72
2023-03-20T10:41:23.214Z,81.61
2023-03-20T10:43:52.745Z,82.05
2023-03-20T10:46:44.684Z,81.71
2023-03-20T10:49:35.961Z,80.44
2023-03-20T10:52:06.590Z,81.39
2023-03-20T10:54:41.994Z,82.55
2023-03-20T10:57:17.948Z,80.81
2023-03-20T10:59:49.632Z,79.98
2023-03-20T11:02:18.253Z,79.93
2023-03-20T11:04:45.039Z,78.27
2023-03-20T11:07:26.880Z,77.59
2023-03-20T11:10:05.579Z,76.37
2023-03-20T11:12:34.206Z,76.25
2023-03-20T11:15:04.907Z,76.10
2023-03-20T11:17:31.378Z,75.68
2023-03-20T11:20:05.129Z,74.92
2023-03-20T11:22:32.086Z,74.93
2023-03-20T11:25:04.227Z,75.12
2023-03-20T11:27:35.974Z,76.78
2023-03-20T11:30:06.012Z,76.24
2023-03-20T11:32:42.060Z,76.86
2023-03-20T11:35:24.000Z,78.19
2023-03-20T11:37:52.837Z,78.61
2023-03-20T11:40:34.243Z,79.00
2023-03-20T11:43:00.696Z,78.84
2023-03-20T11:45:34.396Z,80.27
2023-03-20T11:48:03.504Z,79.91
2023-03-20T11:50:42.035Z,80.06
2023-03-20T11:53:23.315Z,80.28
2023-03-20T11:56:14.718Z,79.03
2023-03-20T11:59:10.397Z,78.28
2023-03-20T12:01:44.548Z,78.28
2023-03-20T12:04:17.973Z,75.69
2023-03-20T12:07:19.470Z,75.56
2023-03-20T12:09:54.968Z,76.65
2023-03-20T12:12:43.644Z,75.45
2023-03-20T12:15:12.925Z,76.30
2023-03-20T12:17:58.261Z,75.74
2023-03-20T12:20:34.187Z,72.60
2023-03-20T12:23:14.068Z,70.96
2023-03-20T12:26:03.048Z,70.16
2023-03-20T12:28:38.524Z,70.66
2023-03-20T12:31:05.064Z,67.33
2023-03-20T12:33:42.887Z,66.76
2023-03-20T12:36:16.543Z,67.13
2023-03-20T12:38:44.098Z,68.21
2023-03-20T12:41:44.557Z,68.19
2023-03-20T12:44:20.908Z,67.28
2023-03-20T12:46:59.773Z,65.61
2023-03-20T12:49:42.976Z,66.56
2023-03-20T12:52:37.476Z,65.51
2023-03-20T12:55:29.885Z,66.10
2023-03-20T12:58:18.372Z,64.37
2023-03-20T13:01:03.757Z,63.39
2023-03-20T13:03:36.719Z,63.05
2023-03-20T13:06:30.749Z,62.55
2023-03-20T13:09:06.135Z,63.08
2023-03-20T13:11:45.872Z,61.88
2023-03-20T13:14:18.528Z,61.41
2023-03-20T13:17:03.652Z,61.15
2023-03-20T13:19:42.104Z,61.33
2023-03-20T13:22:25.506Z,61.88
2023-03-20T13:25:25.282Z,60.43
2023-03-20T13:28:01.842Z,58.62
2023-03-20T13:30:44.221Z,59.08
2023-03-20T13:33:28.547Z,59.35
2023-03-20T13:36:07.221Z,59.44
2023-03-20T13:38:38.597Z,59.26
2023-03-20T13:41:09.729Z,57.67
2023-03-20T13:43:48.409Z,58.49
2023-03-20T13:46:19.198Z,57.36
2023-03-20T13:48:46.722Z,58.15
2023-03-20T13:51:31.683Z,57.39
2023-03-20T13:54:32.335Z,58.15
2023-03-20T13:57:22.551Z,57.81
2023-03-20T14:00:05.100Z,57.88
2023-03-20T14:02:53.602Z,56.88
2023-03-20T14:05:23.393Z,58.56
2023-03-20T14:07:56.481Z,57.97
2023-03-20T14:10:23.285Z,57.28
2023-03-20T14:13:00.689Z,57.64
2023-03-20T14:15:31.621Z,57.08
2023-03-20T14:18:02.967Z,57.49
2023-03-20T14:20:41.885Z,57.46
2023-03-20T14:23:18.396Z,57.60
2023-03-20T14:25:47.716Z,58.13
2023-03-20T14:28:14.234Z,57.27
2023-03-20T14:30:53.431Z,57.31
2023-03-20T14:33:22.950Z,56.93
2023-03-20T14:36:12.348Z,56.97
2023-03-20T14:39:03.763Z,58.21
2023-03-20T14:41:47.187Z,56.85
2023-03-20T14:44:29.972Z,57.26
2023-03-20T14:47:18.998Z,57.38
2023-03-20T14:49:52.769Z,56.61
2023-03-20T14:52:34.759Z,56.35
2023-03-20T14:55:47.812Z,56.32
2023-03-20T14:58:35.770Z,55.69
2023-03-20T15:01:07.693Z,56.77
2023-03-20T15:03:36.166Z,56.16
2023-03-20T15:06:06.960Z,56.44
2023-03-20T15:08:50.826Z,56.07
2023-03-20T15:11:18.052Z,56.88
2023-03-20T15:13:46.114Z,57.26
2023-03-20T15:16:15.031Z,57.24
2023-03-20T15:18:52.589Z,57.24
2023-03-20T15:21:23.403Z,58.17
2023-03-20T15:23:49.879Z,58.28
2023-03-20T15:26:19.662Z,56.88
2023-03-20T15:28:47.433Z,56.83
2023-03-20T15:31:27.453Z,57.19
2023-03-20T15:33:55.634Z,57.28
2023-03-20T15:36:30.164Z,56.72
2023-03-20T15:39:16.761Z,56.75
2023-03-20T15:41:51.383Z,57.66
2023-03-20T15:44:25.588Z,58.14
2023-03-20T15:47:00.425Z,58.35
2023-03-20T15:49:28.068Z,58.92
2023-03-20T15:51:59.472Z,59.05
2023-03-20T15:54:26.300Z,59.21
2023-03-20T15:56:56.025Z,59.50
2023-03-20T15:59:27.578Z,59.39
2023-03-20T16:01:57.887Z,60.54
2023-03-20T16:04:26.078Z,60.65
2023-03-20T16:06:55.776Z,61.11
2023-03-20T16:09:22.692Z,60.92
2023-03-20T16:12:02.650Z,61.52
2023-03-20T16:14:32.548Z,62.00
2023-03-20T16:17:01.576Z,61.92
2023-03-20T16:19:29.163Z,62.69
2023-03-20T16:21:59.366Z,62.88
2023-03-20T16:24:35.415Z,63.33
2023-03-20T16:27:07.792Z,64.05
2023-03-20T16:29:35.812Z,63.58
2023-03-20T16:32:12.024Z,63.79
2023-03-20T16:34:39.626Z,64.06
2023-03-20T16:37:27.620Z,64.64
2023-03-20T16:40:16.136Z,64.95
2023-03-20T16:42:43.778Z,64.06
2023-03-20T16:45:30.251Z,64.21
2023-03-20T16:48:23.992Z,64.83
2023-03-20T16:50:57.163Z,64.33
2023-03-20T16:53:24.893Z,65.68
2023-03-20T16:55:55.578Z,65.41
2023-03-20T16:58:25.610Z,65.07
2023-03-20T17:01:04.863Z,64.84
2023-03-20T17:03:43.659Z,64.57
2023-03-20T17:06:19.630Z,64.87
2023-03-20T17:08:50.179Z,64.68
2023-03-20T17:11:32.924Z,65.04
2023-03-20T17:13:59.992Z,64.45
2023-03-20T17:16:26.938Z,64.58
2023-03-20T17:19:07.305Z,64.52
2023-03-20T17:21:34.338Z,64.68
2023-03-20T17:24:00.824Z,64.76
2023-03-20T17:26:27.340Z,64.87
2023-03-20T17:28:54.700Z,64.79
2023-03-20T17:31:21.278Z,65.20
2023-03-20T17:33:47.860Z,64.86
2023-03-20T17:36:26.352Z,66.09
2023-03-20T17:38:53.771Z,65.83
2023-03-20T17:41:21.350Z,66.49
2023-03-20T17:43:48.023Z,66.11
2023-03-20T17:46:27.213Z,66.69
2023-03-20T17:49:01.661Z,66.19
2023-03-20T17:51:28.554Z,66.51
2023-03-20T17:53:57.719Z,66.69
2023-03-20T17:56:32.480Z,67.25
2023-03-20T17:59:00.354Z,67.40
2023-03-20T18:01:28.423Z,67.19
2023-03-20T18:03:56.514Z,67.12
2023-03-20T18:06:31.429Z,67.63
2023-03-20T18:08:59.983Z,67.35
2023-03-20T18:11:27.166Z,67.95
2023-03-20T18:13:53.870Z,67.73
2023-03-20T18:16:23.407Z,68.00
2023-03-20T18:18:50.904Z,68.51
2023-03-20T18:21:17.709Z,68.19
2023-03-20T18:23:48.212Z,67.99
2023-03-20T18:26:23.804Z,68.01
2023-03-20T18:28:52.209Z,67.89
2023-03-20T18:31:19.629Z,68.39
2023-03-20T18:33:48.009Z,67.64
2023-03-20T18:36:20.585Z,68.24
2023-03-20T18:38:47.823Z,69.07
2023-03-20T18:41:14.867Z,69.03
2023-03-20T18:43:42.271Z,68.43
2023-03-20T18:46:17.526Z,68.60
2023-03-20T18:48:44.578Z,69.32
2023-03-20T18:51:11.695Z,69.94
2023-03-20T18:53:40.713Z,69.90
2023-03-20T18:56:14.041Z,70.69
2023-03-20T18:58:40.854Z,70.00
2023-03-20T19:01:07.459Z,70.68
2023-03-20T19:03:39.196Z,70.78
2023-03-20T19:06:10.555Z,70.73
2023-03-20T19:08:38.739Z,71.17
2023-03-20T19:11:05.918Z,71.12
2023-03-20T19:13:32.379Z,71.21
2023-03-20T19:15:58.984Z,72.16
2023-03-20T19:18:26.905Z,71.87
2023-03-20T19:20:56.093Z,71.73
2023-03-20T19:23:24.435Z,72.03
2023-03-20T19:25:53.099Z,72.22
2023-03-20T19:28:34.540Z,72.14
2023-03-20T19:31:05.032Z,72.34
2023-03-20T19:33:33.201Z,72.21
2023-03-20T19:36:03.312Z,72.19
2023-03-20T19:38:31.284Z,71.95
2023-03-20T19:40:59.249Z,72.27
2023-03-20T19:43:25.995Z,72.52
2023-03-20T19:45:58.014Z,72.56
2023-03-20T19:48:27.919Z,72.12
2023-03-20T19:50:56.411Z,72.33
2023-03-20T19:53:27.677Z,72.91
2023-03-20T19:55:55.430Z,73.37
2023-03-20T19:58:22.595Z,73.36
2023-03-20T20:00:59.176Z,73.78
2023-03-20T20:03:27.260Z,73.64
2023-03-20T20:05:54.454Z,73.88
2023-03-20T20:08:41.363Z,74.00
2023-03-20T20:11:09.764Z,73.79
2023-03-20T20:13:47.146Z,74.18
2023-03-20T20:16:22.802Z,74.34
2023-03-20T20:18:49.345Z,75.25
2023-03-20T20:24:03.203Z,75.02
2023-03-20T20:26:31.247Z,75.32
2023-03-20T20:29:01.908Z,75.58
2023-03-20T20:31:31.862Z,75.38
2023-03-20T20:34:34.890Z,75.58
2023-03-20T20:39:31.923Z,75.46
2023-03-20T20:41:58.407Z,76.35
2023-03-20T20:44:24.871Z,76.39
2023-03-20T20:46:51.601Z,76.66
2023-03-20T20:49:19.774Z,76.46
2023-03-20T20:51:47.428Z,77.18
2023-03-20T20:54:14.262Z,76.80
2023-03-20T20:56:41.587Z,76.98
2023-03-20T20:59:08.213Z,77.21
2023-03-20T21:01:34.986Z,77.55
2023-03-20T21:04:02.349Z,78.06
2023-03-20T21:06:57.987Z,77.85
2023-03-20T21:09:15.350Z,78.62
2023-03-20T21:11:41.853Z,78.69
2023-03-20T21:14:08.389Z,78.89
2023-03-20T21:16:35.416Z,79.10
2023-03-20T21:19:01.937Z,80.18
2023-03-20T21:21:28.437Z,80.30
2023-03-20T21:23:55.472Z,80.43
2023-03-20T21:26:22.319Z,80.71
2023-03-20T21:28:48.887Z,81.00
2023-03-20T21:31:26.764Z,81.63
2023-03-20T21:33:55.465Z,81.61
2023-03-20T21:36:23.417Z,82.18
2023-03-20T21:39:08.679Z,82.07
2023-03-20T21:41:37.840Z,82.64
2023-03-20T21:44:06.451Z,82.07
2023-03-20T22:03:30.854Z,83.85
2023-03-20T22:07:18.735Z,83.61
2023-03-20T22:12:43.638Z,83.84
2023-03-20T22:15:33.924Z,84.84
2023-03-20T22:17:59.859Z,85.67
2023-03-20T22:23:45.550Z,86.59
2023-03-20T22:27:01.556Z,86.45
2023-03-20T22:29:35.890Z,87.96
2023-03-20T22:37:48.227Z,89.08
2023-03-20T22:40:42.060Z,89.27
2023-03-20T22:45:28.872Z,92.00
2023-03-20T22:48:01.460Z,93.63
2023-03-20T22:50:28.275Z,93.30
2023-03-20T22:52:55.615Z,93.65
2023-03-20T22:55:24.927Z,94.13
2023-03-20T22:58:05.938Z,93.89
2023-03-20T23:00:35.007Z,94.56
2023-03-20T23:03:15.393Z,94.60
2023-03-20T23:05:47.202Z,94.23
2023-03-20T23:08:14.079Z,95.13
2023-03-20T23:10:45.802Z,95.52
2023-03-20T23:13:12.624Z,95.76
2023-03-20T23:15:39.464Z,95.91
2023-03-20T23:18:06.287Z,97.02
2023-03-20T23:20:32.872Z,97.33
2023-03-20T23:22:59.364Z,97.95
2023-03-20T23:25:38.278Z,97.90
2023-03-20T23:28:06.756Z,98.02
2023-03-20T23:30:41.921Z,97.65
2023-03-20T23:33:10.606Z,98.20
2023-03-20T23:35:37.126Z,98.05
2023-03-20T23:38:04.132Z,98.59
2023-03-20T23:40:30.996Z,98.56
2023-03-20T23:42:57.547Z,99.29
2023-03-20T23:45:24.082Z,100.00
2023-03-20T23:47:50.977Z,100.00
2023-03-20T23:50:28.848Z,100.00
2023-03-20T23:53:09.416Z,100.00
2023-03-20T23:55:40.772Z,100.00
2023-03-20T23:58:07.565Z,100.00
